Latest Weather Observations for East Sale

IDV60801

Issued at 6:02 pm EST Thursday 2 July 2015 (issued every 30 minutes, with the page automatically refreshed every 10 minutes)

About weather observations | Map of weather stations | Latest weather observations for VIC | Other Formats
Station Details ID: 085072 Name: EAST SALE AIRPORT Lat: -38.12 Lon: 147.13 Height: 4.6 m
Data from the previous 72 hours. | See also: Recent months at East Sale
Date/Time
EST
Temp
°C
App
Temp
°C
Dew
Point
Rel
Hum
%
Delta-T
°C
Wind Press
QNH
hPa
Press
MSL
hPa
Rain
since 9 am
mm
Dir
 
Spd
km/h
Gust
km/h
Spd
kts
Gust
kts
02/06:00pm 6.4 1.8 3.7 83 1.1 WNW 17 19 9 10 1024.9 1024.9 -
02/05:30pm 7.3 3.2 4.3 81 1.3 W 15 20 8 11 1024.5 1024.5 5.6
02/05:00pm 8.3 3.8 4.3 76 1.7 W 17 24 9 13 1024.1 1024.1 5.6
02/04:30pm 8.8 3.8 4.8 76 1.8 WSW 20 28 11 15 1023.7 1023.7 5.6
02/04:00pm 10.0 4.4 3.7 65 2.7 WSW 22 33 12 18 1023.5 1023.5 5.6
02/03:30pm 10.5 5.0 4.0 64 2.9 WSW 22 30 12 16 1023.1 1023.1 5.6
02/03:00pm 10.0 4.4 5.2 72 2.2 W 24 33 13 18 1022.4 1022.4 5.6
02/02:30pm 10.3 3.5 4.9 69 2.4 W 30 41 16 22 1021.9 1021.9 5.6
02/02:00pm 9.7 2.5 5.1 73 2.1 WSW 32 48 17 26 1021.5 1021.5 5.6
02/01:30pm 10.1 3.1 5.9 75 1.9 W 32 44 17 24 1020.8 1020.8 5.6
02/01:00pm 8.9 2.1 5.3 78 1.6 W 30 39 16 21 1021.0 1021.0 5.6
02/12:30pm 7.9 -0.6 5.2 83 1.2 W 39 52 21 28 1020.8 1020.8 5.6
02/12:06pm 7.9 0.6 4.7 80 1.4 W 32 50 17 27 1020.2 1020.2 5.6
02/12:00pm 7.5 0.9 4.1 79 1.5 W 28 37 15 20 1020.4 1020.4 5.6
02/11:30am 7.4 2.2 5.5 88 0.8 W 22 28 12 15 1020.0 1020.0 5.6
02/11:19am 7.2 1.2 5.3 88 0.8 W 26 35 14 19 1020.1 1020.1 5.6
02/11:01am 7.3 0.3 6.1 92 0.5 W 32 50 17 27 1020.5 1020.5 5.6
02/11:00am 7.3 0.3 5.9 91 0.6 W 32 43 17 23 1020.6 1020.6 5.4
02/10:40am 7.5 0.4 6.3 92 0.5 W 33 44 18 24 1019.9 1019.9 4.6
02/10:30am 7.7 1.1 6.2 90 0.7 W 30 41 16 22 1019.6 1019.6 4.4
02/10:17am 7.6 -0.3 6.1 90 0.7 W 37 56 20 30 1019.3 1019.3 4.2
02/10:06am 7.6 -1.5 5.9 89 0.8 W 43 56 23 30 1019.0 1019.0 4.2
02/10:00am 7.6 -1.5 5.7 88 0.9 W 43 57 23 31 1018.9 1018.9 4.0
02/09:34am 7.8 0.6 5.9 88 0.9 WSW 33 48 18 26 1018.5 1018.5 3.8
02/09:30am 8.0 1.3 5.6 85 1.1 SW 30 48 16 26 1018.4 1018.4 3.4
02/09:10am 8.7 2.6 6.7 87 0.9 WSW 28 43 15 23 1018.5 1018.5 1.2
02/09:00am 9.8 4.9 7.1 83 1.3 WSW 22 32 12 17 1018.1 1018.1 0.0
02/08:30am 9.7 4.4 7.0 83 1.3 WSW 24 33 13 18 1017.8 1017.8 0.0
02/08:00am 8.9 3.0 6.0 82 1.3 WSW 26 39 14 21 1017.4 1017.4 0.0
02/07:30am 9.2 0.0 5.4 77 1.7 W 43 57 23 31 1017.2 1017.2 0.0
02/07:00am 9.6 2.5 5.4 75 1.9 W 32 44 17 24 1017.3 1017.3 0.0
02/06:48am 9.5 1.9 5.9 78 1.6 WSW 35 54 19 29 1017.1 1017.1 0.0
02/06:44am 9.6 1.2 5.6 76 1.8 WSW 39 54 21 29 1017.1 1017.1 0.0
02/06:33am 10.5 1.0 5.1 69 2.5 WSW 44 65 24 35 1016.8 1016.8 0.0
02/06:30am 10.8 0.9 4.9 67 2.7 WSW 46 65 25 35 1016.7 1016.7 0.0
02/06:21am 11.9 4.3 7.4 74 2.2 W 37 57 20 31 1016.1 1016.1 0.0
02/06:00am 11.9 5.3 7.8 76 2.0 W 32 44 17 24 1016.0 1016.0 0.0
02/05:44am 12.2 5.9 7.3 72 2.4 W 30 48 16 26 1015.7 1015.7 0.0
02/05:42am 12.1 6.2 7.4 73 2.3 W 28 44 15 24 1015.7 1015.7 0.0
02/05:30am 10.7 7.3 5.9 72 2.2 WNW 13 17 7 9 1015.7 1015.7 0.0
02/05:00am 10.3 6.8 5.5 72 2.2 WNW 13 17 7 9 1015.7 1015.7 0.0
02/04:30am 11.0 6.3 5.1 67 2.7 WNW 19 28 10 15 1015.7 1015.7 0.0
02/04:00am 11.3 6.6 5.0 65 2.9 NW 19 26 10 14 1015.8 1015.8 0.0
02/03:30am 11.0 6.0 4.7 65 2.8 NNW 20 28 11 15 1016.0 1016.0 0.0
02/03:00am 10.9 5.5 4.4 64 2.9 NW 22 30 12 16 1016.1 1016.1 0.0
02/02:30am 11.1 4.9 4.3 63 3.0 NW 26 37 14 20 1016.5 1016.5 0.0
02/02:00am 11.0 5.2 4.2 63 3.0 NNW 24 35 13 19 1017.1 1017.1 0.0
02/01:30am 10.4 4.5 4.1 65 2.8 NNW 24 32 13 17 1017.3 1017.3 0.0
02/01:00am 10.2 3.9 3.9 65 2.8 NW 26 33 14 18 1017.9 1017.9 0.0
02/12:30am 10.7 4.0 3.7 62 3.1 NW 28 37 15 20 1018.3 1018.3 0.0
02/12:00am 10.8 4.5 3.6 61 3.2 NW 26 33 14 18 1019.0 1019.0 0.0
 
Date/Time
EST
Temp
°C
App
Temp
°C
Dew
Point
Rel
Hum
%
Delta-T
°C
Wind Press
QNH
hPa
Press
MSL
hPa
Rain
since 9 am
mm
Dir
 
Spd
km/h
Gust
km/h
Spd
kts
Gust
kts
01/11:30pm 10.8 5.3 3.8 62 3.1 NW 22 26 12 14 1019.1 1019.1 0.0
01/11:00pm 10.5 5.5 3.8 63 2.9 NW 19 24 10 13 1019.4 1019.4 0.0
01/10:30pm 8.3 4.7 3.2 70 2.2 WNW 11 15 6 8 1019.7 1019.7 0.0
01/10:00pm 8.1 5.3 3.0 70 2.1 N 7 9 4 5 1019.9 1019.9 0.0
01/09:00pm 7.9 3.9 2.6 69 2.2 NNW 13 17 7 9 1020.6 1020.6 0.0
01/08:30pm 8.6 4.2 2.6 66 2.5 NNW 15 15 8 8 1020.9 1020.9 0.0
01/08:00pm 8.9 4.5 2.7 65 2.6 NNW 15 19 8 10 1021.2 1021.2 0.0
01/07:30pm 8.3 3.5 2.8 68 2.3 NNW 17 19 9 10 1021.5 1021.5 0.0
01/07:00pm 8.2 3.5 2.9 69 2.2 NNW 17 22 9 12 1021.6 1021.6 0.0
01/06:30pm 9.1 4.4 2.9 65 2.6 NNW 17 20 9 11 1021.7 1021.7 0.0
01/06:00pm 10.2 4.2 3.5 63 2.9 NNW 24 30 13 16 1022.0 1022.0 0.0
01/05:30pm 9.0 4.7 3.4 68 2.4 NW 15 19 8 10 1022.4 1022.4 0.0
01/05:00pm 10.4 5.4 3.4 62 3.0 WNW 19 26 10 14 1022.3 1022.3 0.0
01/04:30pm 11.5 6.5 3.8 59 3.4 W 19 26 10 14 1022.2 1022.2 0.0
01/04:00pm 12.3 6.0 3.8 56 3.8 W 26 33 14 18 1022.5 1022.5 0.0
01/03:30pm 12.5 6.9 3.7 55 3.9 W 22 32 12 17 1022.6 1022.6 0.0
01/03:00pm 12.6 6.8 4.3 57 3.7 W 24 33 13 18 1022.8 1022.8 0.0
01/02:30pm 12.7 6.0 3.6 54 4.1 W 28 37 15 20 1022.9 1022.9 0.0
01/02:00pm 12.5 5.9 4.0 56 3.8 WSW 28 41 15 22 1023.2 1023.2 0.0
01/01:30pm 12.7 6.2 4.7 58 3.7 W 28 39 15 21 1023.6 1023.6 0.0
01/01:00pm 12.8 7.3 5.7 62 3.3 W 24 35 13 19 1024.0 1024.0 0.0
01/12:30pm 12.3 5.0 4.5 59 3.5 WNW 32 39 17 21 1024.5 1024.5 0.0
01/12:00pm 13.2 7.8 6.5 64 3.2 WNW 24 33 13 18 1025.1 1025.1 0.0
01/11:30am 12.4 7.6 7.3 71 2.5 W 22 28 12 15 1026.0 1026.0 0.0
01/11:00am 12.1 8.3 7.6 74 2.2 WNW 17 22 9 12 1026.8 1026.8 0.0
01/10:30am 10.9 7.7 7.0 77 1.9 NW 13 17 7 9 1027.2 1027.2 0.0
01/10:00am 9.3 6.8 6.6 83 1.2 NNW 9 13 5 7 1027.5 1027.5 0.0
01/09:30am 9.1 6.3 7.1 87 0.9 WNW 11 15 6 8 1027.4 1027.4 0.0
01/09:00am 8.3 5.8 6.6 89 0.8 NNW 9 11 5 6 1027.5 1027.5 0.0
01/08:30am 8.3 6.2 6.8 90 0.7 NNW 7 9 4 5 1027.4 1027.4 0.0
01/08:00am 8.8 6.4 6.9 88 0.9 W 9 11 5 6 1027.4 1027.4 0.0
01/07:30am 8.9 6.2 7.2 89 0.8 NW 11 13 6 7 1027.3 1027.3 0.0
01/07:00am 8.5 5.6 6.5 87 0.9 WNW 11 13 6 7 1027.2 1027.2 0.0
01/06:30am 8.7 5.0 6.3 85 1.1 W 15 19 8 10 1027.1 1027.1 0.0
01/06:00am 9.1 5.0 6.4 83 1.2 W 17 20 9 11 1026.9 1026.9 0.0
01/05:30am 8.8 5.1 6.1 83 1.2 W 15 20 8 11 1026.6 1026.6 0.0
01/05:00am 8.9 4.4 6.2 83 1.2 W 19 24 10 13 1026.6 1026.6 0.0
01/04:30am 8.6 4.4 5.9 83 1.2 W 17 20 9 11 1026.5 1026.5 0.0
01/04:00am 9.2 4.7 5.9 80 1.5 W 19 24 10 13 1026.5 1026.5 0.0
01/03:30am 9.0 4.8 5.9 81 1.4 W 17 20 9 11 1026.8 1026.8 0.0
01/03:00am 9.2 5.0 5.9 80 1.5 W 17 24 9 13 1027.0 1027.0 0.0
01/02:30am 9.5 5.7 6.0 79 1.6 WSW 15 20 8 11 1027.1 1027.1 0.0
01/02:00am 9.5 5.3 5.9 78 1.6 WSW 17 22 9 12 1027.2 1027.2 0.0
01/01:30am 9.7 5.0 6.1 78 1.7 WSW 20 28 11 15 1027.3 1027.3 0.0
01/01:00am 10.0 5.5 6.0 76 1.8 W 19 24 10 13 1027.4 1027.4 0.0
01/12:30am 10.0 5.9 6.2 77 1.8 W 17 20 9 11 1027.5 1027.5 0.0
01/12:00am 10.1 6.4 6.3 77 1.8 W 15 22 8 12 1027.7 1027.7 0.0
 
Date/Time
EST
Temp
°C
App
Temp
°C
Dew
Point
Rel
Hum
%
Delta-T
°C
Wind Press
QNH
hPa
Press
MSL
hPa
Rain
since 9 am
mm
Dir
 
Spd
km/h
Gust
km/h
Spd
kts
Gust
kts
30/11:30pm 10.0 6.4 6.7 80 1.5 W 15 20 8 11 1027.8 1027.8 0.0
30/11:00pm 10.1 6.1 6.8 80 1.5 W 17 22 9 12 1027.8 1027.8 0.0
30/10:30pm 10.2 5.9 6.9 80 1.6 W 19 28 10 15 1027.9 1027.9 0.0
30/10:00pm 10.2 6.3 6.9 80 1.5 WSW 17 20 9 11 1027.9 1027.9 0.0
30/09:30pm 10.2 7.1 7.3 82 1.4 WSW 13 17 7 9 1027.8 1027.8 0.0
30/09:00pm 10.7 7.6 7.2 79 1.7 W 13 19 7 10 1027.8 1027.8 0.0
30/08:30pm 10.4 7.3 7.1 80 1.6 W 13 17 7 9 1027.7 1027.7 0.0
30/08:00pm 10.5 7.4 7.2 80 1.6 W 13 15 7 8 1027.7 1027.7 0.0
30/07:30pm 10.9 7.4 7.2 78 1.8 W 15 20 8 11 1027.7 1027.7 0.0
30/07:00pm 10.9 7.7 7.0 77 1.8 W 13 19 7 10 1027.6 1027.6 0.0
30/06:30pm 11.0 8.2 6.9 76 1.9 WNW 11 15 6 8 1027.4 1027.4 0.0
30/06:00pm 11.4 8.9 6.7 73 2.2 W 9 15 5 8 1027.3 1027.3 0.0
30/05:30pm 11.2 8.0 6.7 74 2.1 WNW 13 15 7 8 1027.1 1027.1 0.0
30/05:00pm 11.5 9.0 6.4 71 2.4 NW 9 11 5 6 1026.9 1026.9 0.0
30/04:30pm 11.5 9.5 7.2 75 2.1 NNW 7 9 4 5 1026.8 1026.8 0.0
30/04:00pm 11.8 9.9 7.5 75 2.1 NNW 7 9 4 5 1026.6 1026.6 0.0
30/03:30pm 12.0 9.3 7.3 73 2.3 NW 11 13 6 7 1026.5 1026.5 0.0
30/03:00pm 12.2 8.6 6.7 69 2.6 NW 15 19 8 10 1026.4 1026.4 0.0
30/02:30pm 13.3 10.2 7.1 66 3.0 WNW 13 19 7 10 1026.4 1026.4 0.0
30/02:00pm 12.7 9.6 7.4 70 2.6 WNW 13 17 7 9 1026.5 1026.5 0.0
30/01:30pm 13.0 9.8 6.8 66 3.0 WNW 13 19 7 10 1026.8 1026.8 0.0
30/01:00pm 13.0 10.0 7.9 71 2.5 WNW 13 19 7 10 1027.0 1027.0 0.0
30/12:30pm 12.8 9.1 8.1 73 2.3 WNW 17 20 9 11 1027.4 1027.4 0.0
30/12:00pm 12.0 8.3 6.5 69 2.6 W 15 19 8 10 1027.9 1027.9 0.0
30/11:30am 11.6 8.3 6.5 71 2.4 WNW 13 17 7 9 1028.3 1028.3 0.0
30/11:00am 11.2 7.5 6.5 73 2.2 WNW 15 19 8 10 1028.9 1028.9 0.0
30/10:30am 10.6 6.5 6.4 75 2.0 WNW 17 20 9 11 1029.2 1029.2 0.0
30/10:00am 10.1 5.4 6.1 76 1.8 WNW 20 24 11 13 1029.3 1029.3 0.0
30/09:30am 9.4 5.3 6.1 80 1.5 WNW 17 20 9 11 1029.3 1029.3 0.0
30/09:00am 8.6 4.8 5.7 82 1.3 WNW 15 20 8 11 1029.2 1029.2 0.0
30/08:30am 7.9 4.1 5.7 86 1.0 W 15 20 8 11 1029.2 1029.2 0.0
30/08:00am 7.9 4.6 6.2 89 0.8 WNW 13 15 7 8 1029.3 1029.3 0.0
30/07:30am 8.1 5.2 6.4 89 0.8 WNW 11 13 6 7 1029.3 1029.3 0.0
30/07:15am 8.1 5.9 6.4 89 0.8 WNW 7 9 4 5 1029.3 1029.3 0.0
30/07:00am 7.9 5.4 6.4 90 0.7 WNW 9 11 5 6 1029.2 1029.2 0.0
30/06:30am 8.1 5.2 6.4 89 0.8 NW 11 15 6 8 1029.0 1029.0 0.0
30/06:00am 8.3 5.0 6.3 87 0.9 NNW 13 15 7 8 1028.8 1028.8 0.0
30/05:30am 8.4 6.2 6.2 86 1.0 NW 7 11 4 6 1028.9 1028.9 0.0
30/05:00am 8.4 5.4 6.0 85 1.1 NW 11 13 6 7 1028.7 1028.7 0.0
30/04:30am 8.2 7.0 6.3 88 0.9 WNW 2 7 1 4 1028.6 1028.6 0.0
30/04:00am 8.7 6.5 6.2 84 1.1 WNW 7 9 4 5 1028.7 1028.7 0.0
30/03:30am 9.4 7.2 5.2 75 1.9 WNW 6 13 3 7 1028.8 1028.8 0.0
30/03:00am 8.7 6.1 6.2 84 1.1 WNW 9 11 5 6 1029.0 1029.0 0.0
30/02:30am 8.5 6.3 6.3 86 1.0 NW 7 9 4 5 1029.1 1029.1 0.0
30/02:00am 8.5 5.9 6.3 86 1.0 NNW 9 11 5 6 1029.3 1029.3 0.0
30/01:30am 8.4 6.2 6.4 87 0.9 NW 7 9 4 5 1029.4 1029.4 0.0
30/01:00am 8.5 6.3 6.3 86 1.0 WSW 7 11 4 6 1029.7 1029.7 0.0
30/12:30am 8.6 6.6 6.2 85 1.1 NW 6 7 3 4 1029.8 1029.8 0.0
30/12:00am 8.6 6.4 6.2 85 1.1 W 7 13 4 7 1029.9 1029.9 0.0
 
Date/Time
EST
Temp
°C
App
Temp
°C
Dew
Point
Rel
Hum
%
Delta-T
°C
Wind Press
QNH
hPa
Press
MSL
hPa
Rain
since 9 am
mm
Dir
 
Spd
km/h
Gust
km/h
Spd
kts
Gust
kts
29/11:30pm 8.8 5.5 6.2 84 1.2 W 13 13 7 7 1030.1 1030.1 0.0
29/11:00pm 8.7 5.4 6.3 85 1.1 WNW 13 15 7 8 1030.2 1030.2 0.0
29/10:41pm 8.7 5.4 6.3 85 1.1 NW 13 15 7 8 1030.3 1030.3 0.0
29/10:30pm 8.6 4.9 6.2 85 1.1 NW 15 17 8 9 1030.3 1030.3 0.0
29/10:23pm 8.6 5.3 6.2 85 1.1 NW 13 17 7 9 1030.4 1030.4 0.0
29/10:00pm 8.7 5.8 6.3 85 1.1 NW 11 13 6 7 1030.6 1030.6 0.0
29/09:30pm 8.7 6.1 6.3 85 1.1 NW 9 13 5 7 1030.8 1030.8 0.0
29/09:00pm 8.9 5.6 6.3 84 1.2 NW 13 15 7 8 1031.1 1031.1 0.0
29/08:30pm 8.8 5.5 6.2 84 1.2 W 13 17 7 9 1031.2 1031.2 0.0
29/08:00pm 8.8 5.5 6.2 84 1.2 W 13 17 7 9 1031.4 1031.4 0.0
29/07:30pm 8.8 5.8 6.2 84 1.2 W 11 15 6 8 1031.4 1031.4 0.0
29/07:00pm 8.8 5.9 6.4 85 1.1 W 11 13 6 7 1031.3 1031.3 0.0
29/06:30pm 9.1 5.4 6.4 83 1.2 W 15 19 8 10 1031.1 1031.1 0.0

Other Formats:

Comma delimited format used in spreadsheet applications
http://www.bom.gov.au/fwo/IDV60801/IDV60801.94907.axf

JavaScript Object Notation format (JSON) in row-major order
http://www.bom.gov.au/fwo/IDV60801/IDV60801.94907.json